Achilles Bulker — HPOA — position and weather

sailwx.info

Track history (hours):
 
Tides and Currents Weather Stations Pressure Air Temp Water Temp Dewpoint Dewpoint Depression Visibility Wind Speed Wind Dir Waves Ship Positions

Achilles Bulker

Last reported at 2017-Nov-19 06:28 UTC. Time now 2017-Nov-19 06:48 UTC.
Position N 51°09' E 003°47'.

Length 177 m; draft 9.9 m.

Type: Cargo ship. MMSI: 355170000.

Date/timePositionNaut miles runAvg speedWind from/ knotsBaromVisibWave heightAir tempDewpointWater temp
2017-Nov-19 06:28N 51°09' E 003°47'0 0.0
2017-Nov-19 05:58N 51°09' E 003°47'0 0.0
2017-Nov-19 05:28N 51°09' E 003°47'0 0.0
2017-Nov-19 04:58N 51°09' E 003°47'0 0.0
2017-Nov-19 04:28N 51°09' E 003°47'0 0.0
2017-Nov-19 03:58N 51°09' E 003°47'0 0.0
2017-Nov-19 03:28N 51°09' E 003°47'0 0.0
2017-Nov-19 02:58N 51°09' E 003°47'0 0.0
2017-Nov-19 02:28N 51°09' E 003°47'0 0.0
2017-Nov-19 01:58N 51°09' E 003°47'0 0.0
2017-Nov-19 01:28N 51°09' E 003°47'0 0.0
2017-Nov-19 00:58N 51°09' E 003°47'0 0.0
2017-Nov-19 00:28N 51°09' E 003°47'0 0.0
2017-Nov-18 23:58N 51°09' E 003°47'0 0.0
2017-Nov-18 23:28N 51°09' E 003°47'0 0.0
2017-Nov-18 22:58N 51°09' E 003°47'0 0.0
2017-Nov-18 22:28N 51°09' E 003°47'0 0.0
2017-Nov-18 21:58N 51°09' E 003°47'0 0.0
2017-Nov-18 21:28N 51°09' E 003°47'0 0.0
2017-Nov-18 20:58N 51°09' E 003°47'0 0.0
2017-Nov-18 20:28N 51°09' E 003°47'0 0.0
2017-Nov-18 19:58N 51°09' E 003°47'0 0.0
2017-Nov-18 19:28N 51°09' E 003°47'0 0.0
2017-Nov-18 18:58N 51°09' E 003°47'0 0.0
2017-Nov-18 18:28N 51°09' E 003°47'0 0.0
2017-Nov-18 17:58N 51°09' E 003°47'0 0.0
2017-Nov-18 17:28N 51°09' E 003°47'0 0.0
2017-Nov-18 16:58N 51°09' E 003°47'0 0.0
2017-Nov-18 16:28N 51°09' E 003°47'0 0.0
2017-Nov-18 15:58N 51°09' E 003°47'0 0.0
2017-Nov-18 15:25N 51°09' E 003°47'0 0.0
2017-Nov-18 14:58N 51°09' E 003°47'0 0.0
2017-Nov-18 14:28N 51°09' E 003°47'0 0.0
2017-Nov-18 13:58N 51°09' E 003°47'0 0.0
2017-Nov-18 13:31N 51°09' E 003°47'0 0.0
2017-Nov-18 13:00N 51°09' E 003°47'0 0.0
2017-Nov-18 12:30N 51°09' E 003°47'0 0.0
2017-Nov-18 12:00N 51°09' E 003°47'0 0.0
2017-Nov-18 11:30N 51°09' E 003°47'0 0.0
2017-Nov-18 11:00N 51°09' E 003°47'0 0.0
2017-Nov-18 10:30N 51°09' E 003°47'0 0.0
2017-Nov-18 10:00N 51°09' E 003°47'0 0.0
2017-Nov-18 09:24N 51°09' E 003°47'0 0.0
2017-Nov-18 09:00N 51°09' E 003°47'0 0.0
2017-Nov-18 08:30N 51°09' E 003°47'0 0.0
2017-Nov-18 08:00N 51°09' E 003°47'0 0.0
2017-Nov-18 07:30N 51°09' E 003°47'0 0.0
2017-Nov-18 07:00N 51°09' E 003°47'0 0.0
2017-Nov-18 06:30N 51°09' E 003°47'0 0.0
2017-Nov-18 06:00N 51°09' E 003°47'0 0.0
2017-Nov-18 05:30N 51°09' E 003°47'0 0.0
2017-Nov-18 05:00N 51°09' E 003°47'0 0.0
2017-Nov-18 04:30N 51°09' E 003°47'0 0.0
2017-Nov-18 04:00N 51°09' E 003°47'0 0.0
2017-Nov-18 03:31N 51°09' E 003°47'0 0.0
2017-Nov-18 02:58N 51°09' E 003°47'0 0.0
2017-Nov-18 02:29N 51°09' E 003°47'0 0.0
2017-Nov-18 01:59N 51°09' E 003°47'0 0.0
2017-Nov-18 01:29N 51°09' E 003°47'0 0.0
2017-Nov-18 00:59N 51°09' E 003°47'0 0.0
2017-Nov-18 00:29N 51°09' E 003°47'0 0.1
2017-Nov-18 00:01N 51°09' E 003°47'2 3.0
2017-Nov-17 23:30N 51°10' E 003°48'3 5.8
2017-Nov-17 23:01N 51°13' E 003°48'3 6.1
2017-Nov-17 22:30N 51°16' E 003°50'2 3.7
2017-Nov-17 22:00N 51°18' E 003°50'2 3.3
2017-Nov-17 21:30N 51°19' E 003°49'0 1.0
2017-Nov-17 21:00N 51°20' E 003°49'0 1.0
2017-Nov-17 20:30N 51°20' E 003°49'2 3.6
2017-Nov-17 20:00N 51°21' E 003°46'5 9.9
2017-Nov-17 19:30N 51°25' E 003°42'5 9.5
2017-Nov-17 19:00N 51°26' E 003°34'4 7.3
2017-Nov-17 18:30N 51°25' E 003°29'510.5
2017-Nov-17 18:00N 51°24' E 003°20'5 9.5
2017-Nov-17 17:30N 51°24' E 003°13'5 9.9
2017-Nov-17 17:00N 51°24' E 003°05'510.3
2017-Nov-17 16:30N 51°22' E 002°57'611.7
2017-Nov-17 16:00N 51°22' E 002°48'4 8.8
2017-Nov-17 15:30N 51°22' E 002°41'5 7.8
2017-Nov-17 14:53N 51°22' E 002°33'2 5.8
2017-Nov-17 14:30N 51°22' E 002°29'5 9.6
2017-Nov-17 13:59N 51°20' E 002°22'4 8.7
2017-Nov-17 13:30N 51°18' E 002°16'4 8.5
2017-Nov-17 13:00N 51°16' E 002°10'611.5
2017-Nov-17 12:31N 51°13' E 002°03'5 9.0
2017-Nov-17 12:01N 51°10' E 001°56'510.9
2017-Nov-17 11:30N 51°07' E 001°49'611.6
2017-Nov-17 11:00N 51°03' E 001°43'713.3
2017-Nov-17 10:30N 50°59' E 001°34'612.9
2017-Nov-17 10:00N 50°55' E 001°26'612.5
2017-Nov-17 09:30N 50°49' E 001°24'612.6
2017-Nov-17 09:00N 50°43' E 001°21'4812.4
2017-Nov-17 05:06N 50°21' E 000°13'111.7
2017-Nov-17 05:00N 50°21' E 000°12'611.6
2017-Nov-17 04:30N 50°20' E 000°03'611.3
2017-Nov-17 04:00N 50°18' W 000°06'611.0
2017-Nov-17 03:29N 50°16' W 000°14'2110.2
2017-Nov-17 01:25N 50°11' W 000°46'4 9.5
2017-Nov-17 01:00N 50°11' W 000°52'5 9.4
2017-Nov-17 00:30N 50°10' W 000°59'5 9.3
2017-Nov-17 00:00N 50°08' W 001°06'5 9.6
2017-Nov-16 23:30N 50°07' W 001°13'510.4
2017-Nov-16 23:01N 50°05' W 001°21'611.0
2017-Nov-16 22:30N 50°04' W 001°29'611.8
2017-Nov-16 22:00N 50°02' W 001°38'612.8
2017-Nov-16 21:30N 50°00' W 001°48'713.6
2017-Nov-16 21:00N 49°59' W 001°58'714.4
2017-Nov-16 20:30N 49°57' W 002°09'10014.4
2017-Nov-16 13:32N 49°12' W 004°28'114.2
2017-Nov-16 13:28N 49°12' W 004°29'613.9
2017-Nov-16 13:00N 49°09' W 004°38'1013.7
2017-Nov-16 12:17N 49°04' W 004°51'413.5
2017-Nov-16 11:58N 49°01' W 004°57'713.3
2017-Nov-16 11:28N 48°58' W 005°05'612.9
2017-Nov-16 11:00N 48°55' W 005°13'612.1
2017-Nov-16 10:29N 48°52' W 005°22'511.4
2017-Nov-16 10:00N 48°50' W 005°29'611.5
2017-Nov-16 09:30N 48°46' W 005°36'812.0
2017-Nov-16 08:50N 48°40' W 005°43'411.7
2017-Nov-16 08:30N 48°36' W 005°46'611.7
2017-Nov-16 08:00N 48°31' W 005°50'811.6
2017-Nov-16 07:20N 48°24' W 005°55'411.7
2017-Nov-16 06:58N 48°20' W 005°58'611.9
2017-Nov-16 06:28N 48°15' W 006°02'611.9
2017-Nov-16 05:57N 48°09' W 006°06'612.1
2017-Nov-16 05:30N 48°04' W 006°10'612.1
2017-Nov-16 04:59N 47°59' W 006°14'712.4
2017-Nov-16 04:26N 47°53' W 006°19'512.5
2017-Nov-16 04:01N 47°48' W 006°22'612.5
2017-Nov-16 03:30N 47°42' W 006°26'712.9
2017-Nov-16 03:00N 47°37' W 006°31'1018.8
2017-Nov-16 02:26N 47°28' W 006°39'3 6.6
2017-Nov-16 01:59N 47°25' W 006°41'713.4
2017-Nov-16 01:30N 47°19' W 006°45'713.0
2017-Nov-16 00:57N 47°13' W 006°50'613.2
2017-Nov-16 00:28N 47°07' W 006°54'613.4
2017-Nov-16 00:01N 47°02' W 006°58'713.0
2017-Nov-15 23:27N 46°55' W 007°03'812.9
2017-Nov-15 22:50N 46°48' W 007°08'613.2
2017-Nov-15 22:24N 46°43' W 007°12'1012.7
2017-Nov-15 21:36N 46°34' W 007°19'44512.3
2017-Nov-14 09:21N 39°23' W 009°51'412.4
2017-Nov-14 09:00N 39°19' W 009°51'612.6
2017-Nov-14 08:30N 39°13' W 009°51'612.5
2017-Nov-14 08:01N 39°06' W 009°51'612.3
2017-Nov-14 07:31N 39°00' W 009°51'612.3
2017-Nov-14 07:01N 38°54' W 009°51'612.4
2017-Nov-14 06:30N 38°48' W 009°52'612.3
2017-Nov-14 06:00N 38°42' W 009°51'612.3
2017-Nov-14 05:31N 38°36' W 009°50'612.2
2017-Nov-14 05:00N 38°30' W 009°48'612.2
2017-Nov-14 04:30N 38°24' W 009°46'612.0
2017-Nov-14 04:00N 38°18' W 009°44'612.0
2017-Nov-14 03:31N 38°12' W 009°42'612.3
2017-Nov-14 03:01N 38°06' W 009°41'612.4
2017-Nov-14 02:30N 38°00' W 009°39'612.4
2017-Nov-14 02:01N 37°54' W 009°37'612.3
2017-Nov-14 01:30N 37°48' W 009°36'612.4
2017-Nov-14 01:00N 37°42' W 009°35'612.3
2017-Nov-14 00:31N 37°36' W 009°32'612.5
2017-Nov-14 00:00N 37°30' W 009°30'712.4
2017-Nov-13 23:29N 37°24' W 009°27'611.7
2017-Nov-13 22:59N 37°18' W 009°26'611.9
2017-Nov-13 22:31N 37°13' W 009°25'1011.9
2017-Nov-13 21:42N 37°03' W 009°22'193 7.8
2017-Nov-12 20:58N 35°57' W 005°36'4 9.6
2017-Nov-12 20:30N 35°59' W 005°31'5 9.6
2017-Nov-12 20:01N 36°00' W 005°25'4 8.7
2017-Nov-12 19:30N 36°01' W 005°20'4 7.9
2017-Nov-12 19:01N 36°02' W 005°15'  
2017-Nov-09 09:10N 36°45' E 013°42'312.5
2017-Nov-09 08:57N 36°44' E 013°45'612.8
2017-Nov-09 08:28N 36°42' E 013°53'612.9
2017-Nov-09 08:00N 36°40' E 013°59'712.9
2017-Nov-09 07:30N 36°37' E 014°07'612.1
2017-Nov-09 07:00N 36°35' E 014°14'612.0
2017-Nov-09 06:30N 36°33' E 014°21'  
Track history (hours):
 
Tides and Currents Weather Stations Pressure Air Temp Water Temp Dewpoint Dewpoint Depression Visibility Wind Speed Wind Dir Waves Ship Positions

Achilles Bulker

Last reported at 2017-Nov-19 06:28 UTC. Time now 2017-Nov-19 06:48 UTC.
Position N 51°09' E 003°47'.

Length 177 m; draft 9.9 m.

Type: Cargo ship. MMSI: 355170000.

Date/timePositionNaut miles runAvg speedWind from/ knotsBaromVisibWave heightAir tempDewpointWater temp
2017-Nov-19 06:28N 51°09' E 003°47'0 0.0
2017-Nov-19 05:58N 51°09' E 003°47'0 0.0
2017-Nov-19 05:28N 51°09' E 003°47'0 0.0
2017-Nov-19 04:58N 51°09' E 003°47'0 0.0
2017-Nov-19 04:28N 51°09' E 003°47'0 0.0
2017-Nov-19 03:58N 51°09' E 003°47'0 0.0
2017-Nov-19 03:28N 51°09' E 003°47'0 0.0
2017-Nov-19 02:58N 51°09' E 003°47'0 0.0
2017-Nov-19 02:28N 51°09' E 003°47'0 0.0
2017-Nov-19 01:58N 51°09' E 003°47'0 0.0
2017-Nov-19 01:28N 51°09' E 003°47'0 0.0
2017-Nov-19 00:58N 51°09' E 003°47'0 0.0
2017-Nov-19 00:28N 51°09' E 003°47'0 0.0
2017-Nov-18 23:58N 51°09' E 003°47'0 0.0
2017-Nov-18 23:28N 51°09' E 003°47'0 0.0
2017-Nov-18 22:58N 51°09' E 003°47'0 0.0
2017-Nov-18 22:28N 51°09' E 003°47'0 0.0
2017-Nov-18 21:58N 51°09' E 003°47'0 0.0
2017-Nov-18 21:28N 51°09' E 003°47'0 0.0
2017-Nov-18 20:58N 51°09' E 003°47'0 0.0
2017-Nov-18 20:28N 51°09' E 003°47'0 0.0
2017-Nov-18 19:58N 51°09' E 003°47'0 0.0
2017-Nov-18 19:28N 51°09' E 003°47'0 0.0
2017-Nov-18 18:58N 51°09' E 003°47'0 0.0
2017-Nov-18 18:28N 51°09' E 003°47'0 0.0
2017-Nov-18 17:58N 51°09' E 003°47'0 0.0
2017-Nov-18 17:28N 51°09' E 003°47'0 0.0
2017-Nov-18 16:58N 51°09' E 003°47'0 0.0
2017-Nov-18 16:28N 51°09' E 003°47'0 0.0
2017-Nov-18 15:58N 51°09' E 003°47'0 0.0
2017-Nov-18 15:25N 51°09' E 003°47'0 0.0
2017-Nov-18 14:58N 51°09' E 003°47'0 0.0
2017-Nov-18 14:28N 51°09' E 003°47'0 0.0
2017-Nov-18 13:58N 51°09' E 003°47'0 0.0
2017-Nov-18 13:31N 51°09' E 003°47'0 0.0
2017-Nov-18 13:00N 51°09' E 003°47'0 0.0
2017-Nov-18 12:30N 51°09' E 003°47'0 0.0
2017-Nov-18 12:00N 51°09' E 003°47'0 0.0
2017-Nov-18 11:30N 51°09' E 003°47'0 0.0
2017-Nov-18 11:00N 51°09' E 003°47'0 0.0
2017-Nov-18 10:30N 51°09' E 003°47'0 0.0
2017-Nov-18 10:00N 51°09' E 003°47'0 0.0
2017-Nov-18 09:24N 51°09' E 003°47'0 0.0
2017-Nov-18 09:00N 51°09' E 003°47'0 0.0
2017-Nov-18 08:30N 51°09' E 003°47'0 0.0
2017-Nov-18 08:00N 51°09' E 003°47'0 0.0
2017-Nov-18 07:30N 51°09' E 003°47'0 0.0
2017-Nov-18 07:00N 51°09' E 003°47'0 0.0
2017-Nov-18 06:30N 51°09' E 003°47'0 0.0
2017-Nov-18 06:00N 51°09' E 003°47'0 0.0
2017-Nov-18 05:30N 51°09' E 003°47'0 0.0
2017-Nov-18 05:00N 51°09' E 003°47'0 0.0
2017-Nov-18 04:30N 51°09' E 003°47'0 0.0
2017-Nov-18 04:00N 51°09' E 003°47'0 0.0
2017-Nov-18 03:31N 51°09' E 003°47'0 0.0
2017-Nov-18 02:58N 51°09' E 003°47'0 0.0
2017-Nov-18 02:29N 51°09' E 003°47'0 0.0
2017-Nov-18 01:59N 51°09' E 003°47'0 0.0
2017-Nov-18 01:29N 51°09' E 003°47'0 0.0
2017-Nov-18 00:59N 51°09' E 003°47'0 0.0
2017-Nov-18 00:29N 51°09' E 003°47'0 0.1
2017-Nov-18 00:01N 51°09' E 003°47'2 3.0
2017-Nov-17 23:30N 51°10' E 003°48'3 5.8
2017-Nov-17 23:01N 51°13' E 003°48'3 6.1
2017-Nov-17 22:30N 51°16' E 003°50'2 3.7
2017-Nov-17 22:00N 51°18' E 003°50'2 3.3
2017-Nov-17 21:30N 51°19' E 003°49'0 1.0
2017-Nov-17 21:00N 51°20' E 003°49'0 1.0
2017-Nov-17 20:30N 51°20' E 003°49'2 3.6
2017-Nov-17 20:00N 51°21' E 003°46'5 9.9
2017-Nov-17 19:30N 51°25' E 003°42'5 9.5
2017-Nov-17 19:00N 51°26' E 003°34'4 7.3
2017-Nov-17 18:30N 51°25' E 003°29'510.5
2017-Nov-17 18:00N 51°24' E 003°20'5 9.5
2017-Nov-17 17:30N 51°24' E 003°13'5 9.9
2017-Nov-17 17:00N 51°24' E 003°05'510.3
2017-Nov-17 16:30N 51°22' E 002°57'611.7
2017-Nov-17 16:00N 51°22' E 002°48'4 8.8
2017-Nov-17 15:30N 51°22' E 002°41'5 7.8
2017-Nov-17 14:53N 51°22' E 002°33'2 5.8
2017-Nov-17 14:30N 51°22' E 002°29'5 9.6
2017-Nov-17 13:59N 51°20' E 002°22'4 8.7
2017-Nov-17 13:30N 51°18' E 002°16'4 8.5
2017-Nov-17 13:00N 51°16' E 002°10'611.5
2017-Nov-17 12:31N 51°13' E 002°03'5 9.0
2017-Nov-17 12:01N 51°10' E 001°56'510.9
2017-Nov-17 11:30N 51°07' E 001°49'611.6
2017-Nov-17 11:00N 51°03' E 001°43'713.3
2017-Nov-17 10:30N 50°59' E 001°34'612.9
2017-Nov-17 10:00N 50°55' E 001°26'612.5
2017-Nov-17 09:30N 50°49' E 001°24'612.6
2017-Nov-17 09:00N 50°43' E 001°21'4812.4
2017-Nov-17 05:06N 50°21' E 000°13'111.7
2017-Nov-17 05:00N 50°21' E 000°12'611.6
2017-Nov-17 04:30N 50°20' E 000°03'611.3
2017-Nov-17 04:00N 50°18' W 000°06'611.0
2017-Nov-17 03:29N 50°16' W 000°14'2110.2
2017-Nov-17 01:25N 50°11' W 000°46'4 9.5
2017-Nov-17 01:00N 50°11' W 000°52'5 9.4
2017-Nov-17 00:30N 50°10' W 000°59'5 9.3
2017-Nov-17 00:00N 50°08' W 001°06'5 9.6
2017-Nov-16 23:30N 50°07' W 001°13'510.4
2017-Nov-16 23:01N 50°05' W 001°21'611.0
2017-Nov-16 22:30N 50°04' W 001°29'611.8
2017-Nov-16 22:00N 50°02' W 001°38'612.8
2017-Nov-16 21:30N 50°00' W 001°48'713.6
2017-Nov-16 21:00N 49°59' W 001°58'714.4
2017-Nov-16 20:30N 49°57' W 002°09'10014.4
2017-Nov-16 13:32N 49°12' W 004°28'114.2
2017-Nov-16 13:28N 49°12' W 004°29'613.9
2017-Nov-16 13:00N 49°09' W 004°38'1013.7
2017-Nov-16 12:17N 49°04' W 004°51'413.5
2017-Nov-16 11:58N 49°01' W 004°57'713.3
2017-Nov-16 11:28N 48°58' W 005°05'612.9
2017-Nov-16 11:00N 48°55' W 005°13'612.1
2017-Nov-16 10:29N 48°52' W 005°22'511.4
2017-Nov-16 10:00N 48°50' W 005°29'611.5
2017-Nov-16 09:30N 48°46' W 005°36'812.0
2017-Nov-16 08:50N 48°40' W 005°43'411.7
2017-Nov-16 08:30N 48°36' W 005°46'611.7
2017-Nov-16 08:00N 48°31' W 005°50'811.6
2017-Nov-16 07:20N 48°24' W 005°55'411.7
2017-Nov-16 06:58N 48°20' W 005°58'611.9
2017-Nov-16 06:28N 48°15' W 006°02'611.9
2017-Nov-16 05:57N 48°09' W 006°06'612.1
2017-Nov-16 05:30N 48°04' W 006°10'612.1
2017-Nov-16 04:59N 47°59' W 006°14'712.4
2017-Nov-16 04:26N 47°53' W 006°19'512.5
2017-Nov-16 04:01N 47°48' W 006°22'612.5
2017-Nov-16 03:30N 47°42' W 006°26'712.9
2017-Nov-16 03:00N 47°37' W 006°31'1018.8
2017-Nov-16 02:26N 47°28' W 006°39'3 6.6
2017-Nov-16 01:59N 47°25' W 006°41'713.4
2017-Nov-16 01:30N 47°19' W 006°45'713.0
2017-Nov-16 00:57N 47°13' W 006°50'613.2
2017-Nov-16 00:28N 47°07' W 006°54'613.4
2017-Nov-16 00:01N 47°02' W 006°58'713.0
2017-Nov-15 23:27N 46°55' W 007°03'812.9
2017-Nov-15 22:50N 46°48' W 007°08'613.2
2017-Nov-15 22:24N 46°43' W 007°12'1012.7
2017-Nov-15 21:36N 46°34' W 007°19'44512.3
2017-Nov-14 09:21N 39°23' W 009°51'412.4
2017-Nov-14 09:00N 39°19' W 009°51'612.6
2017-Nov-14 08:30N 39°13' W 009°51'612.5
2017-Nov-14 08:01N 39°06' W 009°51'612.3
2017-Nov-14 07:31N 39°00' W 009°51'612.3
2017-Nov-14 07:01N 38°54' W 009°51'612.4
2017-Nov-14 06:30N 38°48' W 009°52'612.3
2017-Nov-14 06:00N 38°42' W 009°51'612.3
2017-Nov-14 05:31N 38°36' W 009°50'612.2
2017-Nov-14 05:00N 38°30' W 009°48'612.2
2017-Nov-14 04:30N 38°24' W 009°46'612.0
2017-Nov-14 04:00N 38°18' W 009°44'612.0
2017-Nov-14 03:31N 38°12' W 009°42'612.3
2017-Nov-14 03:01N 38°06' W 009°41'612.4
2017-Nov-14 02:30N 38°00' W 009°39'612.4
2017-Nov-14 02:01N 37°54' W 009°37'612.3
2017-Nov-14 01:30N 37°48' W 009°36'612.4
2017-Nov-14 01:00N 37°42' W 009°35'612.3
2017-Nov-14 00:31N 37°36' W 009°32'612.5
2017-Nov-14 00:00N 37°30' W 009°30'712.4
2017-Nov-13 23:29N 37°24' W 009°27'611.7
2017-Nov-13 22:59N 37°18' W 009°26'611.9
2017-Nov-13 22:31N 37°13' W 009°25'1011.9
2017-Nov-13 21:42N 37°03' W 009°22'193 7.8
2017-Nov-12 20:58N 35°57' W 005°36'4 9.6
2017-Nov-12 20:30N 35°59' W 005°31'5 9.6
2017-Nov-12 20:01N 36°00' W 005°25'4 8.7
2017-Nov-12 19:30N 36°01' W 005°20'4 7.9
2017-Nov-12 19:01N 36°02' W 005°15'  
2017-Nov-09 09:10N 36°45' E 013°42'312.5
2017-Nov-09 08:57N 36°44' E 013°45'612.8
2017-Nov-09 08:28N 36°42' E 013°53'612.9
2017-Nov-09 08:00N 36°40' E 013°59'712.9
2017-Nov-09 07:30N 36°37' E 014°07'612.1
2017-Nov-09 07:00N 36°35' E 014°14'612.0
2017-Nov-09 06:30N 36°33' E 014°21'  

Dump ship's entire track history